sensor_id;sensor_type;location;lat;lon;timestamp;pressure;altitude;pressure_sealevel;temperature;humidity
45403;BME280;47427;51.976;5.326;2023-07-30T00:01:09;100829.94;;;15.42;100.00
45403;BME280;47427;51.976;5.326;2023-07-30T00:04:14;100829.91;;;15.37;100.00
45403;BME280;47427;51.976;5.326;2023-07-30T00:07:17;100829.88;;;15.33;100.00
45403;BME280;47427;51.976;5.326;2023-07-30T00:10:19;100835.13;;;15.28;100.00
45403;BME280;47427;51.976;5.326;2023-07-30T00:13:27;100828.94;;;15.25;100.00
45403;BME280;47427;51.976;5.326;2023-07-30T00:16:29;100833.38;;;15.27;100.00
45403;BME280;47427;51.976;5.326;2023-07-30T00:19:32;100831.59;;;15.28;100.00
45403;BME280;47427;51.976;5.326;2023-07-30T00:22:35;100832.44;;;15.21;100.00
45403;BME280;47427;51.976;5.326;2023-07-30T00:25:36;100830.63;;;15.16;100.00
45403;BME280;47427;51.976;5.326;2023-07-30T00:28:39;100836.84;;;15.20;100.00
45403;BME280;47427;51.976;5.326;2023-07-30T00:31:42;100835.06;;;15.17;100.00
45403;BME280;47427;51.976;5.326;2023-07-30T00:34:48;100838.59;;;15.20;100.00
45403;BME280;47427;51.976;5.326;2023-07-30T00:38:10;100836.81;;;15.17;100.00
45403;BME280;47427;51.976;5.326;2023-07-30T00:41:15;100837.69;;;15.17;100.00
45403;BME280;47427;51.976;5.326;2023-07-30T00:44:18;100835.06;;;15.19;100.00
45403;BME280;47427;51.976;5.326;2023-07-30T00:47:21;100830.69;;;15.24;100.00
45403;BME280;47427;51.976;5.326;2023-07-30T00:50:24;100828.91;;;15.20;100.00
45403;BME280;47427;51.976;5.326;2023-07-30T00:53:29;100826.28;;;15.23;100.00
45403;BME280;47427;51.976;5.326;2023-07-30T00:56:32;100826.25;;;15.17;100.00
45403;BME280;47427;51.976;5.326;2023-07-30T00:59:43;100835.06;;;15.21;100.00
45403;BME280;47427;51.976;5.326;2023-07-30T01:02:45;100834.16;;;15.18;100.00
45403;BME280;47427;51.976;5.326;2023-07-30T01:05:48;100835.94;;;15.21;100.00
45403;BME280;47427;51.976;5.326;2023-07-30T01:08:52;100836.78;;;15.14;100.00
45403;BME280;47427;51.976;5.326;2023-07-30T01:11:55;100835.91;;;15.13;100.00
45403;BME280;47427;51.976;5.326;2023-07-30T01:14:57;100842.97;;;15.16;100.00
45403;BME280;47427;51.976;5.326;2023-07-30T01:17:59;100853.50;;;15.11;100.00
45403;BME280;47427;51.976;5.326;2023-07-30T01:21:01;100862.31;;;15.10;100.00
45403;BME280;47427;51.976;5.326;2023-07-30T01:24:04;100867.63;;;15.15;100.00
45403;BME280;47427;51.976;5.326;2023-07-30T01:27:14;100856.97;;;15.06;100.00
45403;BME280;47427;51.976;5.326;2023-07-30T01:30:30;100861.41;;;15.08;100.00
45403;BME280;47427;51.976;5.326;2023-07-30T01:33:36;100864.91;;;15.04;100.00
45403;BME280;47427;51.976;5.326;2023-07-30T01:36:41;100865.78;;;15.06;100.00
45403;BME280;47427;51.976;5.326;2023-07-30T01:39:48;100865.84;;;15.12;100.00
45403;BME280;47427;51.976;5.326;2023-07-30T01:42:50;100865.91;;;15.17;100.00
45403;BME280;47427;51.976;5.326;2023-07-30T01:45:53;100871.16;;;15.15;100.00
45403;BME280;47427;51.976;5.326;2023-07-30T01:48:56;100866.69;;;15.05;100.00
45403;BME280;47427;51.976;5.326;2023-07-30T01:51:58;100864.06;;;15.07;100.00
45403;BME280;47427;51.976;5.326;2023-07-30T01:55:01;100865.78;;;15.06;100.00
45403;BME280;47427;51.976;5.326;2023-07-30T01:58:03;100863.16;;;15.05;100.00
45403;BME280;47427;51.976;5.326;2023-07-30T02:01:06;100864.00;;;15.02;100.00
45403;BME280;47427;51.976;5.326;2023-07-30T02:04:19;100866.63;;;14.99;100.00
45403;BME280;47427;51.976;5.326;2023-07-30T02:07:24;100862.22;;;14.97;100.00
45403;BME280;47427;51.976;5.326;2023-07-30T02:10:26;100864.84;;;14.98;100.00
45403;BME280;47427;51.976;5.326;2023-07-30T02:13:27;100868.31;;;14.91;100.00
45403;BME280;47427;51.976;5.326;2023-07-30T02:16:30;100870.06;;;14.89;100.00
45403;BME280;47427;51.976;5.326;2023-07-30T02:19:36;100871.81;;;14.88;100.00
45403;BME280;47427;51.976;5.326;2023-07-30T02:22:37;100861.22;;;14.85;100.00
45403;BME280;47427;51.976;5.326;2023-07-30T02:25:41;100859.50;;;14.89;100.00
45403;BME280;47427;51.976;5.326;2023-07-30T02:28:48;100864.81;;;14.92;100.00
45403;BME280;47427;51.976;5.326;2023-07-30T02:31:54;100863.03;;;14.91;100.00
45403;BME280;47427;51.976;5.326;2023-07-30T02:34:56;100860.44;;;14.99;100.00
45403;BME280;47427;51.976;5.326;2023-07-30T02:38:01;100859.63;;;15.04;100.00
45403;BME280;47427;51.976;5.326;2023-07-30T02:41:10;100850.91;;;15.19;100.00
45403;BME280;47427;51.976;5.326;2023-07-30T02:44:15;100850.09;;;15.26;100.00
45403;BME280;47427;51.976;5.326;2023-07-30T02:47:20;100851.84;;;15.23;100.00
45403;BME280;47427;51.976;5.326;2023-07-30T02:50:25;100857.09;;;15.18;100.00
45403;BME280;47427;51.976;5.326;2023-07-30T02:53:28;100852.63;;;15.11;100.00
45403;BME280;47427;51.976;5.326;2023-07-30T02:56:36;100849.00;;;14.98;100.00
45403;BME280;47427;51.976;5.326;2023-07-30T02:59:37;100849.88;;;14.97;100.00
45403;BME280;47427;51.976;5.326;2023-07-30T03:02:40;100850.69;;;14.90;100.00
45403;BME280;47427;51.976;5.326;2023-07-30T03:05:45;100848.91;;;14.84;100.00
45403;BME280;47427;51.976;5.326;2023-07-30T03:08:48;100841.81;;;14.80;100.00
45403;BME280;47427;51.976;5.326;2023-07-30T03:11:51;100846.19;;;14.77;100.00
45403;BME280;47427;51.976;5.326;2023-07-30T03:14:54;100842.63;;;14.73;100.00
45403;BME280;47427;51.976;5.326;2023-07-30T03:18:02;100851.47;;;14.78;100.00
45403;BME280;47427;51.976;5.326;2023-07-30T03:21:05;100851.47;;;14.77;100.00
45403;BME280;47427;51.976;5.326;2023-07-30T03:24:10;100841.72;;;14.69;100.00
45403;BME280;47427;51.976;5.326;2023-07-30T03:27:13;100851.41;;;14.70;100.00
45403;BME280;47427;51.976;5.326;2023-07-30T03:30:16;100852.31;;;14.74;100.00
45403;BME280;47427;51.976;5.326;2023-07-30T03:33:20;100854.97;;;14.74;100.00
45403;BME280;47427;51.976;5.326;2023-07-30T03:36:26;100854.94;;;14.72;100.00
45403;BME280;47427;51.976;5.326;2023-07-30T03:39:32;100864.66;;;14.75;100.00
45403;BME280;47427;51.976;5.326;2023-07-30T03:42:34;100868.25;;;14.85;100.00
45403;BME280;47427;51.976;5.326;2023-07-30T03:45:38;100861.25;;;14.87;100.00
45403;BME280;47427;51.976;5.326;2023-07-30T03:48:42;100871.91;;;14.98;100.00
45403;BME280;47427;51.976;5.326;2023-07-30T03:51:44;100874.72;;;15.21;100.00
45403;BME280;47427;51.976;5.326;2023-07-30T03:54:46;100869.59;;;15.41;100.00
45403;BME280;47427;51.976;5.326;2023-07-30T03:57:49;100867.06;;;15.57;100.00
45403;BME280;47427;51.976;5.326;2023-07-30T04:00:52;100873.22;;;15.59;100.00
45403;BME280;47427;51.976;5.326;2023-07-30T04:03:57;100860.84;;;15.52;100.00
45403;BME280;47427;51.976;5.326;2023-07-30T04:06:59;100866.16;;;15.58;100.00
45403;BME280;47427;51.976;5.326;2023-07-30T04:10:02;100874.06;;;15.52;100.00
45403;BME280;47427;51.976;5.326;2023-07-30T04:13:05;100867.97;;;15.67;100.00
45403;BME280;47427;51.976;5.326;2023-07-30T04:16:10;100872.38;;;15.64;100.00
45403;BME280;47427;51.976;5.326;2023-07-30T04:19:12;100866.22;;;15.68;100.00
45403;BME280;47427;51.976;5.326;2023-07-30T04:22:17;100871.53;;;15.69;100.00
45403;BME280;47427;51.976;5.326;2023-07-30T04:25:20;100874.31;;;15.88;100.00
45403;BME280;47427;51.976;5.326;2023-07-30T04:28:28;100877.88;;;16.05;100.00
45403;BME280;47427;51.976;5.326;2023-07-30T04:31:29;100887.66;;;16.17;100.00
45403;BME280;47427;51.976;5.326;2023-07-30T04:34:33;100882.41;;;16.23;100.00
45403;BME280;47427;51.976;5.326;2023-07-30T04:37:36;100884.19;;;16.36;100.00
45403;BME280;47427;51.976;5.326;2023-07-30T04:40:42;100881.56;;;16.41;100.00
45403;BME280;47427;51.976;5.326;2023-07-30T04:43:43;100883.31;;;16.48;100.00
45403;BME280;47427;51.976;5.326;2023-07-30T04:47:05;100892.16;;;16.42;100.00
45403;BME280;47427;51.976;5.326;2023-07-30T04:50:09;100899.19;;;16.40;100.00
45403;BME280;47427;51.976;5.326;2023-07-30T04:53:14;100897.47;;;16.50;100.00
45403;BME280;47427;51.976;5.326;2023-07-30T04:56:15;100900.09;;;16.44;100.00
45403;BME280;47427;51.976;5.326;2023-07-30T04:59:19;100897.47;;;16.41;100.00
45403;BME280;47427;51.976;5.326;2023-07-30T05:02:22;100898.31;;;16.40;100.00
45403;BME280;47427;51.976;5.326;2023-07-30T05:05:26;100903.63;;;16.38;100.00
45403;BME280;47427;51.976;5.326;2023-07-30T05:08:28;100898.34;;;16.41;100.00
45403;BME280;47427;51.976;5.326;2023-07-30T05:11:34;100908.91;;;16.40;100.00
45403;BME280;47427;51.976;5.326;2023-07-30T05:14:37;100912.47;;;16.43;100.00
45403;BME280;47427;51.976;5.326;2023-07-30T05:17:39;100916.03;;;16.56;100.00
45403;BME280;47427;51.976;5.326;2023-07-30T05:20:42;100919.59;;;16.61;100.00
45403;BME280;47427;51.976;5.326;2023-07-30T05:23:49;100917.81;;;16.76;100.00
45403;BME280;47427;51.976;5.326;2023-07-30T05:26:50;100916.13;;;16.82;100.00
45403;BME280;47427;51.976;5.326;2023-07-30T05:29:56;100917.81;;;16.68;100.00
45403;BME280;47427;51.976;5.326;2023-07-30T05:32:59;100918.72;;;16.73;100.00
45403;BME280;47427;51.976;5.326;2023-07-30T05:36:01;100915.25;;;16.85;100.00
45403;BME280;47427;51.976;5.326;2023-07-30T05:39:03;100909.09;;;17.04;100.00
45403;BME280;47427;51.976;5.326;2023-07-30T05:42:06;100917.00;;;16.98;100.00
45403;BME280;47427;51.976;5.326;2023-07-30T05:45:09;100923.22;;;17.13;100.00
45403;BME280;47427;51.976;5.326;2023-07-30T05:48:13;100909.97;;;17.09;100.00
45403;BME280;47427;51.976;5.326;2023-07-30T05:51:16;100911.75;;;17.17;100.00
45403;BME280;47427;51.976;5.326;2023-07-30T05:54:19;100918.81;;;17.27;100.00
45403;BME280;47427;51.976;5.326;2023-07-30T05:57:22;100912.59;;;17.42;100.00
45403;BME280;47427;51.976;5.326;2023-07-30T06:00:23;100917.00;;;17.44;100.00
45403;BME280;47427;51.976;5.326;2023-07-30T06:03:25;100917.88;;;17.63;100.00
45403;BME280;47427;51.976;5.326;2023-07-30T06:06:28;100922.28;;;17.69;100.00
45403;BME280;47427;51.976;5.326;2023-07-30T06:09:31;100931.16;;;17.49;100.00
45403;BME280;47427;51.976;5.326;2023-07-30T06:12:36;100914.34;;;17.58;100.00
45403;BME280;47427;51.976;5.326;2023-07-30T06:15:38;100920.53;;;17.71;100.00
45403;BME280;47427;51.976;5.326;2023-07-30T06:18:41;100920.53;;;17.75;100.00
45403;BME280;47427;51.976;5.326;2023-07-30T06:21:44;100916.09;;;17.71;100.00
45403;BME280;47427;51.976;5.326;2023-07-30T06:24:57;100923.16;;;17.75;100.00
45403;BME280;47427;51.976;5.326;2023-07-30T06:28:04;100928.50;;;17.80;100.00
45403;BME280;47427;51.976;5.326;2023-07-30T06:31:07;100918.72;;;17.96;100.00
45403;BME280;47427;51.976;5.326;2023-07-30T06:34:10;100929.28;;;18.16;100.00
45403;BME280;47427;51.976;5.326;2023-07-30T06:37:13;100923.03;;;18.25;100.00
45403;BME280;47427;51.976;5.326;2023-07-30T06:40:15;100916.72;;;18.46;100.00
45403;BME280;47427;51.976;5.326;2023-07-30T06:43:18;100913.09;;;18.67;100.00
45403;BME280;47427;51.976;5.326;2023-07-30T06:46:21;100922.72;;;18.89;100.00
45403;BME280;47427;51.976;5.326;2023-07-30T06:49:23;100914.81;;;18.78;100.00
45403;BME280;47427;51.976;5.326;2023-07-30T06:52:25;100920.78;;;19.13;100.00
45403;BME280;47427;51.976;5.326;2023-07-30T06:55:27;100914.63;;;19.09;100.00
45403;BME280;47427;51.976;5.326;2023-07-30T06:58:29;100910.22;;;19.02;100.00
45403;BME280;47427;51.976;5.326;2023-07-30T07:01:35;100922.59;;;19.06;100.00
45403;BME280;47427;51.976;5.326;2023-07-30T07:04:39;100928.06;;;18.89;100.00
45403;BME280;47427;51.976;5.326;2023-07-30T07:07:44;100927.25;;;18.69;100.00
45403;BME280;47427;51.976;5.326;2023-07-30T07:10:50;100934.38;;;18.62;100.00
45403;BME280;47427;51.976;5.326;2023-07-30T07:13:55;100933.28;;;18.98;100.00
45403;BME280;47427;51.976;5.326;2023-07-30T07:16:56;100935.88;;;19.08;100.00
45403;BME280;47427;51.976;5.326;2023-07-30T07:19:59;100937.13;;;18.47;100.00
45403;BME280;47427;51.976;5.326;2023-07-30T07:23:02;100939.00;;;18.18;100.00
45403;BME280;47427;51.976;5.326;2023-07-30T07:26:05;100940.66;;;18.46;100.00
45403;BME280;47427;51.976;5.326;2023-07-30T07:29:10;100938.88;;;18.43;100.00
45403;BME280;47427;51.976;5.326;2023-07-30T07:32:13;100938.94;;;18.38;100.00
45403;BME280;47427;51.976;5.326;2023-07-30T07:35:18;100951.28;;;18.49;100.00
45403;BME280;47427;51.976;5.326;2023-07-30T07:38:40;100946.75;;;18.65;100.00
45403;BME280;47427;51.976;5.326;2023-07-30T07:41:42;100959.22;;;18.52;100.00
45403;BME280;47427;51.976;5.326;2023-07-30T07:44:45;100956.53;;;18.61;100.00
45403;BME280;47427;51.976;5.326;2023-07-30T07:47:48;100958.16;;;18.91;100.00
45403;BME280;47427;51.976;5.326;2023-07-30T07:50:51;100946.19;;;19.49;100.00
45403;BME280;47427;51.976;5.326;2023-07-30T07:53:53;100944.25;;;19.71;100.00
45403;BME280;47427;51.976;5.326;2023-07-30T07:56:55;100942.53;;;20.43;100.00
45403;BME280;47427;51.976;5.326;2023-07-30T07:59:58;100949.47;;;20.58;100.00
45403;BME280;47427;51.976;5.326;2023-07-30T08:03:01;100962.69;;;21.27;99.81
45403;BME280;47427;51.976;5.326;2023-07-30T08:06:05;100937.63;;;23.49;87.34
45403;BME280;47427;51.976;5.326;2023-07-30T08:09:07;100945.50;;;23.89;85.53
45403;BME280;47427;51.976;5.326;2023-07-30T08:12:10;100953.97;;;25.79;63.15
45403;BME280;47427;51.976;5.326;2023-07-30T08:15:13;100991.84;;;27.83;53.75
45403;BME280;47427;51.976;5.326;2023-07-30T08:18:15;100974.31;;;27.29;54.59
45403;BME280;47427;51.976;5.326;2023-07-30T08:21:17;100952.66;;;25.65;57.36
45403;BME280;47427;51.976;5.326;2023-07-30T08:24:23;100914.91;;;23.64;63.43
45403;BME280;47427;51.976;5.326;2023-07-30T08:27:28;100927.78;;;21.91;68.45
45403;BME280;47427;51.976;5.326;2023-07-30T08:30:31;100944.16;;;21.18;72.26
45403;BME280;47427;51.976;5.326;2023-07-30T08:33:33;100947.25;;;20.90;73.19
45403;BME280;47427;51.976;5.326;2023-07-30T08:36:37;100950.81;;;20.88;74.80
45403;BME280;47427;51.976;5.326;2023-07-30T08:39:40;100960.25;;;22.16;69.86
45403;BME280;47427;51.976;5.326;2023-07-30T08:42:45;100946.53;;;22.34;68.93
45403;BME280;47427;51.976;5.326;2023-07-30T08:45:50;100941.34;;;22.25;68.68
45403;BME280;47427;51.976;5.326;2023-07-30T08:48:53;100943.59;;;22.01;68.16
45403;BME280;47427;51.976;5.326;2023-07-30T08:51:56;100943.97;;;21.80;69.99
45403;BME280;47427;51.976;5.326;2023-07-30T08:54:59;100958.19;;;21.82;70.13
45403;BME280;47427;51.976;5.326;2023-07-30T08:58:04;100970.59;;;21.84;68.94
45403;BME280;47427;51.976;5.326;2023-07-30T09:01:08;100956.72;;;22.14;69.11
45403;BME280;47427;51.976;5.326;2023-07-30T09:04:10;100970.16;;;22.94;66.90
45403;BME280;47427;51.976;5.326;2023-07-30T09:07:12;100960.72;;;22.78;66.60
45403;BME280;47427;51.976;5.326;2023-07-30T09:10:15;100955.06;;;22.52;67.18
45403;BME280;47427;51.976;5.326;2023-07-30T09:13:22;100965.88;;;22.45;66.13
45403;BME280;47427;51.976;5.326;2023-07-30T09:16:28;100953.91;;;23.04;65.08
45403;BME280;47427;51.976;5.326;2023-07-30T09:19:35;101004.56;;;25.92;58.09
45403;BME280;47427;51.976;5.326;2023-07-30T09:22:38;101078.44;;;30.09;47.70
45403;BME280;47427;51.976;5.326;2023-07-30T09:25:41;101125.38;;;31.44;41.54
45403;BME280;47427;51.976;5.326;2023-07-30T09:28:42;101177.28;;;33.35;37.05
45403;BME280;47427;51.976;5.326;2023-07-30T09:31:49;101209.06;;;34.04;33.67
45403;BME280;47427;51.976;5.326;2023-07-30T09:34:53;101141.53;;;32.39;37.04
45403;BME280;47427;51.976;5.326;2023-07-30T09:38:01;101136.72;;;31.35;38.39
45403;BME280;47427;51.976;5.326;2023-07-30T09:41:03;101046.06;;;27.75;45.31
45403;BME280;47427;51.976;5.326;2023-07-30T09:44:07;101055.34;;;28.91;43.47
45403;BME280;47427;51.976;5.326;2023-07-30T09:47:13;101107.53;;;30.40;40.48
45403;BME280;47427;51.976;5.326;2023-07-30T09:50:19;101068.44;;;29.38;42.96
45403;BME280;47427;51.976;5.326;2023-07-30T09:53:21;101092.94;;;30.25;41.22
45403;BME280;47427;51.976;5.326;2023-07-30T09:56:24;101056.41;;;28.49;44.25
45403;BME280;47427;51.976;5.326;2023-07-30T09:59:26;101037.94;;;29.53;43.47
45403;BME280;47427;51.976;5.326;2023-07-30T10:02:29;101114.34;;;31.79;38.71
45403;BME280;47427;51.976;5.326;2023-07-30T10:05:34;101208.47;;;35.32;33.14
45403;BME280;47427;51.976;5.326;2023-07-30T10:08:38;101252.66;;;35.63;31.05
45403;BME280;47427;51.976;5.326;2023-07-30T10:11:45;101177.75;;;32.98;35.21
45403;BME280;47427;51.976;5.326;2023-07-30T10:14:49;101210.56;;;32.51;34.82
45403;BME280;47427;51.976;5.326;2023-07-30T10:17:52;101097.81;;;28.05;41.63
45403;BME280;47427;51.976;5.326;2023-07-30T10:20:59;101030.13;;;26.31;46.43
45403;BME280;47427;51.976;5.326;2023-07-30T10:24:03;100994.91;;;25.34;48.67
45403;BME280;47427;51.976;5.326;2023-07-30T10:27:07;100951.28;;;24.38;51.89
45403;BME280;47427;51.976;5.326;2023-07-30T10:30:15;100908.25;;;23.46;56.03
45403;BME280;47427;51.976;5.326;2023-07-30T10:33:17;100899.38;;;23.09;58.56
45403;BME280;47427;51.976;5.326;2023-07-30T10:36:36;100994.91;;;27.08;50.57
45403;BME280;47427;51.976;5.326;2023-07-30T10:39:41;101100.00;;;28.38;43.34
45403;BME280;47427;51.976;5.326;2023-07-30T10:42:46;101013.16;;;24.93;50.55
45403;BME280;47427;51.976;5.326;2023-07-30T10:45:51;100974.41;;;24.11;54.01
45403;BME280;47427;51.976;5.326;2023-07-30T10:48:53;100990.81;;;24.62;53.31
45403;BME280;47427;51.976;5.326;2023-07-30T10:51:57;101146.56;;;32.01;39.16
45403;BME280;47427;51.976;5.326;2023-07-30T10:55:03;101263.34;;;35.53;31.99
45403;BME280;47427;51.976;5.326;2023-07-30T10:58:06;101258.03;;;33.77;33.10
45403;BME280;47427;51.976;5.326;2023-07-30T11:01:08;101163.84;;;29.59;39.87
45403;BME280;47427;51.976;5.326;2023-07-30T11:04:20;101125.25;;;27.73;41.98
45403;BME280;47427;51.976;5.326;2023-07-30T11:07:23;101169.63;;;30.43;37.12
45403;BME280;47427;51.976;5.326;2023-07-30T11:10:26;101232.66;;;30.99;35.18
45403;BME280;47427;51.976;5.326;2023-07-30T11:13:34;101244.03;;;33.26;32.64
45403;BME280;47427;51.976;5.326;2023-07-30T11:16:37;101225.88;;;32.68;33.71
45403;BME280;47427;51.976;5.326;2023-07-30T11:19:46;101249.97;;;31.29;32.67
45403;BME280;47427;51.976;5.326;2023-07-30T11:22:52;101229.00;;;31.00;33.93
45403;BME280;47427;51.976;5.326;2023-07-30T11:25:54;101271.56;;;31.82;32.07
45403;BME280;47427;51.976;5.326;2023-07-30T11:28:57;101235.28;;;29.74;35.04
45403;BME280;47427;51.976;5.326;2023-07-30T11:31:59;101184.03;;;27.16;38.69
45403;BME280;47427;51.976;5.326;2023-07-30T11:35:05;101135.19;;;25.71;42.28
45403;BME280;47427;51.976;5.326;2023-07-30T11:38:09;101102.13;;;25.10;44.47
45403;BME280;47427;51.976;5.326;2023-07-30T11:41:11;101099.44;;;27.21;41.91
45403;BME280;47427;51.976;5.326;2023-07-30T11:44:37;101195.47;;;28.99;37.99
45403;BME280;47427;51.976;5.326;2023-07-30T11:47:40;101147.75;;;27.26;41.21
45403;BME280;47427;51.976;5.326;2023-07-30T11:50:52;101111.03;;;27.23;42.00
45403;BME280;47427;51.976;5.326;2023-07-30T11:53:58;101116.94;;;26.36;43.19
45403;BME280;47427;51.976;5.326;2023-07-30T11:57:00;101088.56;;;25.15;45.23
45403;BME280;47427;51.976;5.326;2023-07-30T12:00:02;101053.28;;;24.35;47.83
45403;BME280;47427;51.976;5.326;2023-07-30T12:03:13;101111.03;;;28.13;42.22
45403;BME280;47427;51.976;5.326;2023-07-30T12:06:15;101142.03;;;27.57;41.35
45403;BME280;47427;51.976;5.326;2023-07-30T12:09:20;101159.41;;;29.00;38.82
45403;BME280;47427;51.976;5.326;2023-07-30T12:12:25;101185.28;;;29.05;38.79
45403;BME280;47427;51.976;5.326;2023-07-30T12:15:28;101196.31;;;31.03;35.89
45403;BME280;47427;51.976;5.326;2023-07-30T12:18:31;101192.16;;;28.51;39.03
45403;BME280;47427;51.976;5.326;2023-07-30T12:21:33;101134.00;;;26.08;44.21
45403;BME280;47427;51.976;5.326;2023-07-30T12:24:36;101081.00;;;25.85;46.08
45403;BME280;47427;51.976;5.326;2023-07-30T12:27:39;101202.81;;;30.81;36.83
45403;BME280;47427;51.976;5.326;2023-07-30T12:30:42;101226.47;;;31.63;34.52
45403;BME280;47427;51.976;5.326;2023-07-30T12:33:43;101250.59;;;31.35;34.56
45403;BME280;47427;51.976;5.326;2023-07-30T12:36:46;101303.16;;;33.81;30.39
45403;BME280;47427;51.976;5.326;2023-07-30T12:39:49;101269.31;;;30.88;34.65
45403;BME280;47427;51.976;5.326;2023-07-30T12:42:51;101223.91;;;27.78;38.19
45403;BME280;47427;51.976;5.326;2023-07-30T12:45:55;101182.50;;;27.09;39.86
45403;BME280;47427;51.976;5.326;2023-07-30T12:48:57;101130.78;;;25.97;43.71
45403;BME280;47427;51.976;5.326;2023-07-30T12:51:59;101142.81;;;28.05;40.59
45403;BME280;47427;51.976;5.326;2023-07-30T12:55:02;101248.44;;;33.43;33.37
45403;BME280;47427;51.976;5.326;2023-07-30T12:58:25;101352.22;;;35.83;28.37
45403;BME280;47427;51.976;5.326;2023-07-30T13:01:28;101385.28;;;34.02;28.83
45403;BME280;47427;51.976;5.326;2023-07-30T13:04:31;101329.66;;;32.74;31.62
45403;BME280;47427;51.976;5.326;2023-07-30T13:07:35;101285.22;;;29.46;34.79
45403;BME280;47427;51.976;5.326;2023-07-30T13:10:38;101224.94;;;27.74;38.68
45403;BME280;47427;51.976;5.326;2023-07-30T13:13:40;101237.28;;;29.70;35.07
45403;BME280;47427;51.976;5.326;2023-07-30T13:16:43;101290.13;;;31.05;31.86
45403;BME280;47427;51.976;5.326;2023-07-30T13:19:46;101272.31;;;29.53;34.74
45403;BME280;47427;51.976;5.326;2023-07-30T13:22:51;101239.06;;;27.81;36.87
45403;BME280;47427;51.976;5.326;2023-07-30T13:25:55;101199.47;;;26.87;39.80
45403;BME280;47427;51.976;5.326;2023-07-30T13:28:57;101188.84;;;27.78;38.49
45403;BME280;47427;51.976;5.326;2023-07-30T13:32:00;101188.13;;;26.77;39.79
45403;BME280;47427;51.976;5.326;2023-07-30T13:35:03;101173.53;;;28.45;37.49
45403;BME280;47427;51.976;5.326;2023-07-30T13:38:05;101252.19;;;31.88;33.00
45403;BME280;47427;51.976;5.326;2023-07-30T13:41:08;101326.09;;;32.88;29.08
45403;BME280;47427;51.976;5.326;2023-07-30T13:44:21;101350.41;;;33.66;28.60
45403;BME280;47427;51.976;5.326;2023-07-30T13:47:26;101372.16;;;35.32;26.72
45403;BME280;47427;51.976;5.326;2023-07-30T13:50:28;101400.34;;;35.32;26.04
45403;BME280;47427;51.976;5.326;2023-07-30T13:53:31;101412.78;;;34.69;25.88
45403;BME280;47427;51.976;5.326;2023-07-30T13:56:39;101349.22;;;30.80;30.76
45403;BME280;47427;51.976;5.326;2023-07-30T13:59:44;101342.44;;;32.72;28.82
45403;BME280;47427;51.976;5.326;2023-07-30T14:02:46;101310.22;;;30.10;32.45
45403;BME280;47427;51.976;5.326;2023-07-30T14:05:54;101295.53;;;31.23;31.29
45403;BME280;47427;51.976;5.326;2023-07-30T14:08:59;101342.09;;;33.09;27.86
45403;BME280;47427;51.976;5.326;2023-07-30T14:12:06;101354.97;;;33.21;28.00
45403;BME280;47427;51.976;5.326;2023-07-30T14:15:08;101352.25;;;31.95;29.47
45403;BME280;47427;51.976;5.326;2023-07-30T14:18:11;101309.63;;;30.77;31.50
45403;BME280;47427;51.976;5.326;2023-07-30T14:21:14;101315.53;;;32.98;30.45
45403;BME280;47427;51.976;5.326;2023-07-30T14:24:17;101348.94;;;32.06;28.96
45403;BME280;47427;51.976;5.326;2023-07-30T14:27:27;101307.41;;;29.13;33.20
45403;BME280;47427;51.976;5.326;2023-07-30T14:30:32;101270.78;;;27.98;34.87
45403;BME280;47427;51.976;5.326;2023-07-30T14:33:35;101220.16;;;27.10;36.69
45403;BME280;47427;51.976;5.326;2023-07-30T14:36:39;101229.16;;;29.31;34.76
45403;BME280;47427;51.976;5.326;2023-07-30T14:39:41;101260.69;;;30.80;32.13
45403;BME280;47427;51.976;5.326;2023-07-30T14:42:44;101292.16;;;32.17;29.67
45403;BME280;47427;51.976;5.326;2023-07-30T14:45:49;101318.00;;;32.25;29.63
45403;BME280;47427;51.976;5.326;2023-07-30T14:49:11;101284.25;;;27.74;34.44
45403;BME280;47427;51.976;5.326;2023-07-30T14:52:15;101225.59;;;26.84;37.20
45403;BME280;47427;51.976;5.326;2023-07-30T14:55:18;101205.03;;;26.81;37.71
45403;BME280;47427;51.976;5.326;2023-07-30T14:58:20;101190.69;;;26.29;38.41
45403;BME280;47427;51.976;5.326;2023-07-30T15:01:28;101174.66;;;26.26;38.86
45403;BME280;47427;51.976;5.326;2023-07-30T15:04:32;101179.34;;;26.97;38.14
45403;BME280;47427;51.976;5.326;2023-07-30T15:07:33;101169.91;;;26.34;38.73
45403;BME280;47427;51.976;5.326;2023-07-30T15:10:39;101156.97;;;26.19;39.81
45403;BME280;47427;51.976;5.326;2023-07-30T15:13:42;101134.69;;;26.40;40.77
45403;BME280;47427;51.976;5.326;2023-07-30T15:16:43;101142.25;;;25.74;40.58
45403;BME280;47427;51.976;5.326;2023-07-30T15:19:48;101135.03;;;25.48;41.22
45403;BME280;47427;51.976;5.326;2023-07-30T15:22:53;101125.44;;;25.39;41.86
45403;BME280;47427;51.976;5.326;2023-07-30T15:25:56;101124.47;;;25.70;41.54
45403;BME280;47427;51.976;5.326;2023-07-30T15:28:59;101114.41;;;25.48;41.52
45403;BME280;47427;51.976;5.326;2023-07-30T15:32:02;101136.19;;;25.39;41.36
45403;BME280;47427;51.976;5.326;2023-07-30T15:35:05;101123.00;;;25.32;41.70
45403;BME280;47427;51.976;5.326;2023-07-30T15:38:09;101138.94;;;27.22;40.52
45403;BME280;47427;51.976;5.326;2023-07-30T15:41:11;101158.53;;;27.72;38.74
45403;BME280;47427;51.976;5.326;2023-07-30T15:44:13;101158.50;;;27.73;38.53
45403;BME280;47427;51.976;5.326;2023-07-30T15:47:15;101151.31;;;27.50;39.17
45403;BME280;47427;51.976;5.326;2023-07-30T15:50:17;101160.06;;;27.79;38.50
45403;BME280;47427;51.976;5.326;2023-07-30T15:53:25;101154.94;;;27.02;40.34
45403;BME280;47427;51.976;5.326;2023-07-30T15:56:31;101150.16;;;26.85;40.39